Terminal Aerodrome Forecast
Issued by NWS

Home | Current Version | Previous Version | Text Only | Print | Product List | Glossary On
Versions: 1 2 3 4 5 6 7 8 9 10 11 12 13 14
000
FTPA31 PHFO 262340
TAFHKO
TAF
PHKO 262340Z 2700/2724 26011KT P6SM SCT060
     FM270600 18008KT P6SM VCSH SCT025 BKN060
     FM271400 14008KT P6SM FEW050
     FM272000 27007KT P6SM SCT060=

USA.gov is the U.S. government's official web portal to all federal, state and local government web resources and services.